createdAt,value
2018-08-31T00:01:35.174Z,14.27
2018-08-31T00:04:41.636Z,12.28
2018-08-31T00:07:27.582Z,13.70
2018-08-31T00:11:12.750Z,15.00
2018-08-31T00:13:41.683Z,11.07
2018-08-31T00:16:10.427Z,13.67
2018-08-31T00:18:39.613Z,13.22
2018-08-31T00:21:08.448Z,12.10
2018-08-31T00:23:49.124Z,12.57
2018-08-31T00:26:29.034Z,11.40
2018-08-31T00:29:10.198Z,12.33
2018-08-31T00:31:55.994Z,12.07
2018-08-31T00:35:32.064Z,14.20
2018-08-31T00:38:13.089Z,15.10
2018-08-31T00:42:56.677Z,12.13
2018-08-31T00:45:31.823Z,13.00
2018-08-31T00:48:01.122Z,15.33
2018-08-31T00:50:30.757Z,14.10
2018-08-31T00:52:59.845Z,13.67
2018-08-31T00:55:28.842Z,12.50
2018-08-31T00:57:57.802Z,13.30
2018-08-31T01:00:27.001Z,13.83
2018-08-31T01:02:56.058Z,13.40
2018-08-31T01:05:25.897Z,12.45
2018-08-31T01:07:54.669Z,18.50
2018-08-31T01:10:24.673Z,16.77
2018-08-31T01:12:54.740Z,12.30
2018-08-31T01:15:24.023Z,15.80
2018-08-31T01:17:52.758Z,17.80
2018-08-31T01:20:23.413Z,16.93
2018-08-31T01:22:53.159Z,14.47
2018-08-31T01:25:21.868Z,14.93
2018-08-31T01:27:50.539Z,16.95
2018-08-31T01:30:19.593Z,15.93
2018-08-31T01:32:48.759Z,17.77
2018-08-31T01:35:17.823Z,15.13
2018-08-31T01:37:46.719Z,13.43
2018-08-31T01:40:15.525Z,15.10
2018-08-31T01:42:44.939Z,16.40
2018-08-31T01:45:14.272Z,13.40
2018-08-31T01:47:43.353Z,17.00
2018-08-31T01:50:12.663Z,15.90
2018-08-31T01:52:41.698Z,14.17
2018-08-31T01:55:10.974Z,20.92
2018-08-31T01:57:40.330Z,15.83
2018-08-31T02:00:09.519Z,16.87
2018-08-31T02:02:38.929Z,15.13
2018-08-31T02:05:07.577Z,14.07
2018-08-31T02:07:37.067Z,13.77
2018-08-31T02:10:06.307Z,16.63
2018-08-31T02:12:35.129Z,18.03
2018-08-31T02:15:03.726Z,12.97
2018-08-31T02:17:32.663Z,15.67
2018-08-31T02:20:02.315Z,17.90
2018-08-31T02:22:30.990Z,16.70
2018-08-31T02:24:59.633Z,14.70
2018-08-31T02:27:28.369Z,13.93
2018-08-31T02:29:57.073Z,15.00
2018-08-31T02:32:26.450Z,13.58
2018-08-31T02:34:55.644Z,13.40
2018-08-31T02:37:26.001Z,15.63
2018-08-31T02:39:54.995Z,16.83
2018-08-31T02:42:23.824Z,17.63
2018-08-31T02:44:52.465Z,16.27
2018-08-31T02:47:21.845Z,15.03
2018-08-31T02:49:51.094Z,16.33
2018-08-31T02:52:20.080Z,16.80
2018-08-31T02:54:49.331Z,16.07
2018-08-31T02:57:18.538Z,16.30
2018-08-31T02:59:47.472Z,13.50
2018-08-31T03:02:16.269Z,13.27
2018-08-31T03:04:45.150Z,17.97
2018-08-31T03:07:14.833Z,13.63
2018-08-31T03:09:43.835Z,12.45
2018-08-31T03:12:14.026Z,17.33
2018-08-31T03:14:43.679Z,14.10
2018-08-31T03:17:12.281Z,12.03
2018-08-31T03:19:41.271Z,12.33
2018-08-31T03:22:09.944Z,14.03
2018-08-31T03:24:38.940Z,12.10
2018-08-31T03:27:09.169Z,13.63
2018-08-31T03:29:38.153Z,15.73
2018-08-31T03:32:06.844Z,14.33
2018-08-31T03:34:35.523Z,15.80
2018-08-31T03:37:04.345Z,14.17
2018-08-31T03:39:33.536Z,12.07
2018-08-31T03:42:02.934Z,13.63
2018-08-31T03:44:31.765Z,13.67
2018-08-31T03:47:00.664Z,15.83
2018-08-31T03:49:29.963Z,13.30
2018-08-31T03:51:58.550Z,13.50
2018-08-31T03:54:28.048Z,16.17
2018-08-31T03:56:56.954Z,15.80
2018-08-31T03:59:26.103Z,16.60
2018-08-31T04:01:55.613Z,15.83
2018-08-31T04:04:24.728Z,13.67
2018-08-31T04:06:54.025Z,16.10
2018-08-31T04:09:23.635Z,14.27
2018-08-31T04:11:52.309Z,13.85
2018-08-31T04:14:21.173Z,14.50
2018-08-31T04:16:49.821Z,12.43
2018-08-31T04:19:18.913Z,14.45
2018-08-31T04:21:47.718Z,13.80
2018-08-31T04:24:17.150Z,14.25
2018-08-31T04:26:47.259Z,13.37
2018-08-31T04:29:16.467Z,20.93
2018-08-31T04:31:46.300Z,13.77
2018-08-31T04:34:16.303Z,15.83
2018-08-31T04:36:45.424Z,17.90
2018-08-31T04:39:14.384Z,12.00
2018-08-31T04:41:44.621Z,11.83
2018-08-31T04:44:13.579Z,11.93
2018-08-31T04:46:42.386Z,12.10
2018-08-31T04:49:12.494Z,12.27
2018-08-31T04:51:41.283Z,13.60
2018-08-31T04:54:10.044Z,13.17
2018-08-31T04:56:38.919Z,13.17
2018-08-31T04:59:07.760Z,12.40
2018-08-31T05:01:36.442Z,13.73
2018-08-31T05:04:05.243Z,16.07
2018-08-31T05:06:34.727Z,15.05
2018-08-31T05:09:04.514Z,15.23
2018-08-31T05:11:34.597Z,15.43
2018-08-31T05:14:05.390Z,14.20
2018-08-31T05:16:34.228Z,14.33
2018-08-31T05:19:03.275Z,14.17
2018-08-31T05:21:32.281Z,12.43
2018-08-31T05:24:01.034Z,13.53
2018-08-31T05:26:29.981Z,15.67
2018-08-31T05:28:59.430Z,14.60
2018-08-31T05:31:28.314Z,12.10
2018-08-31T05:33:57.036Z,13.20
2018-08-31T05:36:29.071Z,12.23
2018-08-31T05:38:57.930Z,12.87
2018-08-31T05:41:27.182Z,19.13
2018-08-31T05:43:56.661Z,15.37
2018-08-31T05:46:25.721Z,15.58
2018-08-31T05:48:54.450Z,20.80
2018-08-31T05:51:23.086Z,11.73
2018-08-31T05:53:52.324Z,18.10
2018-08-31T05:56:21.625Z,17.00
2018-08-31T05:58:50.892Z,14.33
2018-08-31T06:01:19.678Z,13.80
2018-08-31T06:03:48.396Z,17.13
2018-08-31T06:06:17.175Z,16.67
2018-08-31T06:08:46.636Z,19.63
2018-08-31T06:11:15.456Z,12.58
2018-08-31T06:13:44.069Z,12.30
2018-08-31T06:16:13.484Z,11.57
2018-08-31T06:18:43.606Z,13.43
2018-08-31T06:21:13.785Z,19.43
2018-08-31T06:23:42.586Z,15.03
2018-08-31T06:26:11.242Z,13.03
2018-08-31T06:28:40.574Z,10.63
2018-08-31T06:31:09.756Z,13.17
2018-08-31T06:33:38.344Z,16.70
2018-08-31T06:36:07.140Z,12.63
2018-08-31T06:38:37.545Z,12.47
2018-08-31T06:41:06.561Z,16.60
2018-08-31T06:43:35.964Z,14.50
2018-08-31T06:46:04.689Z,14.40
2018-08-31T06:48:33.275Z,15.20
2018-08-31T06:51:02.461Z,13.50
2018-08-31T06:53:31.935Z,12.07
2018-08-31T06:56:00.619Z,10.23
2018-08-31T06:58:30.171Z,11.30
2018-08-31T07:00:59.120Z,12.83
2018-08-31T07:03:27.731Z,13.20
2018-08-31T07:05:56.394Z,17.37
2018-08-31T07:08:25.125Z,16.90
2018-08-31T07:10:54.015Z,15.20
2018-08-31T07:13:22.684Z,19.23
2018-08-31T07:15:51.999Z,15.40
2018-08-31T07:18:20.671Z,18.50
2018-08-31T07:20:50.141Z,14.40
2018-08-31T07:23:19.054Z,18.43
2018-08-31T07:25:47.652Z,11.70
2018-08-31T07:28:16.732Z,13.80
2018-08-31T07:30:45.316Z,16.40
2018-08-31T07:33:14.327Z,15.50
2018-08-31T07:35:43.566Z,15.97
2018-08-31T07:38:12.745Z,13.30
2018-08-31T07:40:41.672Z,16.57
2018-08-31T07:43:11.297Z,13.23
2018-08-31T07:45:40.110Z,14.10
2018-08-31T07:48:08.980Z,10.47
2018-08-31T07:50:38.291Z,16.40
2018-08-31T07:53:07.191Z,10.00
2018-08-31T07:55:36.341Z,10.67
2018-08-31T07:58:05.940Z,11.20
2018-08-31T08:00:34.890Z,8.37
2018-08-31T08:03:04.150Z,11.17
2018-08-31T08:05:33.251Z,7.80
2018-08-31T08:08:02.121Z,13.53
2018-08-31T08:10:30.836Z,8.67
2018-08-31T08:13:00.099Z,9.60
2018-08-31T08:15:28.962Z,13.43
2018-08-31T08:17:58.687Z,17.25
2018-08-31T08:20:27.730Z,10.97
2018-08-31T08:22:57.010Z,13.43
2018-08-31T08:25:26.332Z,11.30
2018-08-31T08:27:55.272Z,13.03
2018-08-31T08:30:24.246Z,12.90
2018-08-31T08:32:53.096Z,10.60
2018-08-31T08:35:22.117Z,11.00
2018-08-31T08:37:51.926Z,7.70
2018-08-31T08:40:20.708Z,10.97
2018-08-31T08:42:49.356Z,8.93
2018-08-31T08:45:18.333Z,10.00
2018-08-31T08:47:47.126Z,15.33
2018-08-31T08:50:16.255Z,12.20
2018-08-31T08:52:45.752Z,9.27
2018-08-31T08:55:14.846Z,9.80
2018-08-31T08:57:43.696Z,14.40
2018-08-31T09:00:12.531Z,11.63
2018-08-31T09:02:42.786Z,8.57
2018-08-31T09:05:11.403Z,10.97
2018-08-31T09:07:40.288Z,12.30
2018-08-31T09:10:09.222Z,15.40
2018-08-31T09:12:38.058Z,10.83
2018-08-31T09:15:07.031Z,15.93
2018-08-31T09:17:35.886Z,15.67
2018-08-31T09:20:04.999Z,10.90
2018-08-31T09:22:34.490Z,12.77
2018-08-31T09:25:03.500Z,10.30
2018-08-31T09:27:33.707Z,8.83
2018-08-31T09:30:03.142Z,11.00
2018-08-31T09:32:33.012Z,10.43
2018-08-31T09:35:02.495Z,11.10
2018-08-31T09:37:31.800Z,11.50
2018-08-31T09:40:01.929Z,11.77
2018-08-31T09:42:33.166Z,14.83
2018-08-31T09:45:01.782Z,13.60
2018-08-31T09:47:30.458Z,15.30
2018-08-31T09:49:59.207Z,23.50
2018-08-31T09:52:27.892Z,13.10
2018-08-31T09:54:58.123Z,16.00
2018-08-31T09:57:26.967Z,18.20
2018-08-31T09:59:56.477Z,15.90
2018-08-31T10:02:31.581Z,14.47
2018-08-31T10:05:00.206Z,24.53
2018-08-31T10:07:29.177Z,17.83
2018-08-31T10:09:58.446Z,18.60
2018-08-31T10:12:27.496Z,17.63
2018-08-31T10:14:56.371Z,19.30
2018-08-31T10:17:26.651Z,15.17
2018-08-31T10:19:55.287Z,22.80
2018-08-31T10:22:24.613Z,22.47
2018-08-31T10:24:53.385Z,19.90
2018-08-31T10:27:23.099Z,16.63
2018-08-31T10:29:52.052Z,19.40
2018-08-31T10:32:22.505Z,16.90
2018-08-31T10:34:51.440Z,19.53
2018-08-31T10:37:20.445Z,17.67
2018-08-31T10:39:49.954Z,19.87
2018-08-31T10:42:19.202Z,19.27
2018-08-31T10:44:48.536Z,16.10
2018-08-31T10:47:17.651Z,22.03
2018-08-31T10:49:46.556Z,17.33
2018-08-31T10:52:15.373Z,18.25
2018-08-31T10:54:45.261Z,18.50
2018-08-31T10:57:14.144Z,24.30
2018-08-31T10:59:44.918Z,18.90
2018-08-31T11:02:13.602Z,17.25
2018-08-31T11:04:42.376Z,19.03
2018-08-31T11:07:11.094Z,18.30
2018-08-31T11:09:39.889Z,17.02
2018-08-31T11:12:08.780Z,17.40
2018-08-31T11:14:38.070Z,16.17
2018-08-31T11:17:07.305Z,16.93
2018-08-31T11:19:36.150Z,14.53
2018-08-31T11:22:05.717Z,15.03
2018-08-31T11:24:34.592Z,16.07
2018-08-31T11:27:03.141Z,18.40
2018-08-31T11:29:32.576Z,15.63
2018-08-31T11:32:02.217Z,17.73
2018-08-31T11:34:30.951Z,15.68
2018-08-31T11:37:00.252Z,17.30
2018-08-31T11:39:28.962Z,16.53
2018-08-31T11:41:58.507Z,19.03
2018-08-31T11:44:27.728Z,18.50
2018-08-31T11:46:57.032Z,18.60
2018-08-31T11:49:25.893Z,17.20
2018-08-31T11:51:54.778Z,18.40
2018-08-31T11:54:23.687Z,17.67
2018-08-31T11:56:52.633Z,17.57
2018-08-31T11:59:21.423Z,17.80
2018-08-31T12:01:52.369Z,16.50
2018-08-31T12:04:21.427Z,16.90
2018-08-31T12:06:50.803Z,16.90
2018-08-31T12:09:20.217Z,17.60
2018-08-31T12:11:49.191Z,20.43
2018-08-31T12:14:18.158Z,18.17
2018-08-31T12:16:46.839Z,18.15
2018-08-31T12:19:16.968Z,18.30
2018-08-31T12:21:46.069Z,18.90
2018-08-31T12:24:14.993Z,15.80
2018-08-31T12:26:46.444Z,13.20
2018-08-31T12:29:15.293Z,13.67
2018-08-31T12:31:43.999Z,14.53
2018-08-31T12:34:12.677Z,13.67
2018-08-31T12:36:41.513Z,12.60
2018-08-31T12:39:11.316Z,13.27
2018-08-31T12:41:40.385Z,14.90
2018-08-31T12:44:09.703Z,13.40
2018-08-31T12:46:39.362Z,16.70
2018-08-31T12:49:08.189Z,13.55
2018-08-31T12:51:36.963Z,13.20
2018-08-31T12:54:05.641Z,15.17
2018-08-31T12:56:35.058Z,13.60
2018-08-31T12:59:04.416Z,14.93
2018-08-31T13:01:33.276Z,17.23
2018-08-31T13:04:03.947Z,14.83
2018-08-31T13:06:32.733Z,15.63
2018-08-31T13:09:02.937Z,16.05
2018-08-31T13:11:31.678Z,16.80
2018-08-31T13:14:00.734Z,22.50
2018-08-31T13:16:29.932Z,15.50
2018-08-31T13:18:59.162Z,17.50
2018-08-31T13:21:27.768Z,16.07
2018-08-31T13:23:57.464Z,16.27
2018-08-31T13:26:26.517Z,17.90
2018-08-31T13:28:56.013Z,17.60
2018-08-31T13:31:24.864Z,15.60
2018-08-31T13:33:53.689Z,14.60
2018-08-31T13:36:22.477Z,16.07
2018-08-31T13:38:51.336Z,22.82
2018-08-31T13:41:20.227Z,15.98
2018-08-31T13:43:49.446Z,16.50
2018-08-31T13:46:18.618Z,17.20
2018-08-31T13:48:47.814Z,20.50
2018-08-31T13:51:16.504Z,17.60
2018-08-31T13:53:45.196Z,17.70
2018-08-31T13:56:14.748Z,19.13
2018-08-31T13:58:43.494Z,16.80
2018-08-31T14:01:13.132Z,15.83
2018-08-31T14:03:42.165Z,16.60
2018-08-31T14:06:11.892Z,19.37
2018-08-31T14:08:40.674Z,16.03
2018-08-31T14:11:10.598Z,16.50
2018-08-31T14:13:39.397Z,19.13
2018-08-31T14:16:08.056Z,18.87
2018-08-31T14:18:36.763Z,16.63
2018-08-31T14:21:05.894Z,21.03
2018-08-31T14:23:34.679Z,24.83
2018-08-31T14:26:03.985Z,19.03
2018-08-31T14:28:33.478Z,15.80
2018-08-31T14:31:02.453Z,15.30
2018-08-31T14:33:31.458Z,17.73
2018-08-31T14:36:00.234Z,18.47
2018-08-31T14:38:29.463Z,18.37
2018-08-31T14:40:58.512Z,18.30
2018-08-31T14:43:27.208Z,16.87
2018-08-31T14:45:56.099Z,22.47
2018-08-31T14:48:25.069Z,17.87
2018-08-31T14:50:54.764Z,21.00
2018-08-31T14:53:23.573Z,16.67
2018-08-31T14:55:52.187Z,19.15
2018-08-31T14:58:21.255Z,17.97
2018-08-31T15:00:50.026Z,15.68
2018-08-31T15:03:19.690Z,18.27
2018-08-31T15:05:48.958Z,18.67
2018-08-31T15:08:17.514Z,16.62
2018-08-31T15:10:46.442Z,19.17
2018-08-31T15:13:16.697Z,20.95
2018-08-31T15:15:45.762Z,18.40
2018-08-31T15:18:14.973Z,24.10
2018-08-31T15:20:44.228Z,19.53
2018-08-31T15:23:13.405Z,21.37
2018-08-31T15:25:42.816Z,18.77
2018-08-31T15:28:11.489Z,18.03
2018-08-31T15:30:42.552Z,18.13
2018-08-31T15:33:11.423Z,18.77
2018-08-31T15:35:40.126Z,19.77
2018-08-31T15:38:09.740Z,20.73
2018-08-31T15:40:38.841Z,24.60
2018-08-31T15:43:08.524Z,20.10
2018-08-31T15:45:37.567Z,18.53
2018-08-31T15:48:07.640Z,22.27
2018-08-31T15:50:38.758Z,20.02
2018-08-31T15:53:08.035Z,20.30
2018-08-31T15:55:37.582Z,23.00
2018-08-31T15:58:07.477Z,19.77
2018-08-31T16:00:37.698Z,22.40
2018-08-31T16:03:07.609Z,38.73
2018-08-31T16:05:36.386Z,22.27
2018-08-31T16:08:05.407Z,24.25
2018-08-31T16:10:37.009Z,22.23
2018-08-31T16:13:06.873Z,24.77
2018-08-31T16:15:35.828Z,23.57
2018-08-31T16:18:04.709Z,22.00
2018-08-31T16:20:33.702Z,24.10
2018-08-31T16:23:03.495Z,25.90
2018-08-31T16:25:32.320Z,21.97
2018-08-31T16:28:01.645Z,27.50
2018-08-31T16:30:31.741Z,25.07
2018-08-31T16:33:00.478Z,28.23
2018-08-31T16:35:29.242Z,23.83
2018-08-31T16:37:58.035Z,26.20
2018-08-31T16:40:26.720Z,25.70
2018-08-31T16:42:55.450Z,24.33
2018-08-31T16:45:24.511Z,23.98
2018-08-31T16:47:53.451Z,27.53
2018-08-31T16:50:24.019Z,27.48
2018-08-31T16:52:53.249Z,25.13
2018-08-31T16:55:23.379Z,26.40
2018-08-31T16:57:52.363Z,28.10
2018-08-31T17:00:21.370Z,25.93
2018-08-31T17:02:50.313Z,33.33
2018-08-31T17:05:20.005Z,27.20
2018-08-31T17:07:48.865Z,27.20
2018-08-31T17:10:19.059Z,25.37
2018-08-31T17:12:49.008Z,23.47
2018-08-31T17:15:18.035Z,25.20
2018-08-31T17:17:47.685Z,24.13
2018-08-31T17:20:16.728Z,28.37
2018-08-31T17:22:45.980Z,28.37
2018-08-31T17:25:16.463Z,30.63
2018-08-31T17:27:50.344Z,30.50
2018-08-31T17:30:21.548Z,28.67
2018-08-31T17:32:55.754Z,29.63
2018-08-31T17:35:29.775Z,28.90
2018-08-31T17:38:00.809Z,35.73
2018-08-31T17:40:31.233Z,28.70
2018-08-31T17:43:01.408Z,28.27
2018-08-31T17:45:30.373Z,25.90
2018-08-31T17:47:59.457Z,30.60
2018-08-31T17:50:29.539Z,35.03
2018-08-31T17:52:59.109Z,25.63
2018-08-31T17:55:29.299Z,28.47
2018-08-31T17:58:00.203Z,37.97
2018-08-31T18:00:29.403Z,30.27
2018-08-31T18:02:58.330Z,32.30
2018-08-31T18:05:27.662Z,35.93
2018-08-31T18:07:56.662Z,24.30
2018-08-31T18:10:26.236Z,30.30
2018-08-31T18:12:55.288Z,31.63
2018-08-31T18:15:24.015Z,27.45
2018-08-31T18:17:53.414Z,27.47
2018-08-31T18:20:22.953Z,26.17
2018-08-31T18:22:51.935Z,25.97
2018-08-31T18:25:20.952Z,27.40
2018-08-31T18:27:50.038Z,25.97
2018-08-31T18:30:19.428Z,32.70
2018-08-31T18:32:48.489Z,33.10
2018-08-31T18:35:18.263Z,31.55
2018-08-31T18:37:47.112Z,24.33
2018-08-31T18:40:16.279Z,25.17
2018-08-31T18:42:45.372Z,31.03
2018-08-31T18:45:14.593Z,25.48
2018-08-31T18:47:43.704Z,24.50
2018-08-31T18:50:12.660Z,28.50
2018-08-31T18:52:42.230Z,24.37
2018-08-31T18:55:11.446Z,27.73
2018-08-31T18:57:40.253Z,29.17
2018-08-31T19:00:09.804Z,25.63
2018-08-31T19:02:38.947Z,31.17
2018-08-31T19:05:07.669Z,25.43
2018-08-31T19:07:37.730Z,32.70
2018-08-31T19:10:06.804Z,29.63
2018-08-31T19:12:36.121Z,28.20
2018-08-31T19:15:06.539Z,30.07
2018-08-31T19:17:35.443Z,38.23
2018-08-31T19:20:04.883Z,28.83
2018-08-31T19:22:33.691Z,31.07
2018-08-31T19:25:02.598Z,32.03
2018-08-31T19:27:33.208Z,36.30
2018-08-31T19:30:03.415Z,37.50
2018-08-31T19:32:32.820Z,33.23
2018-08-31T19:35:02.509Z,33.03
2018-08-31T19:37:32.884Z,29.00
2018-08-31T19:40:02.406Z,27.27
2018-08-31T19:42:32.676Z,29.37
2018-08-31T19:45:02.096Z,27.67
2018-08-31T19:47:31.379Z,25.90
2018-08-31T19:50:00.830Z,29.07
2018-08-31T19:52:31.550Z,19.23
2018-08-31T19:55:01.410Z,23.07
2018-08-31T19:57:31.189Z,24.63
2018-08-31T20:00:00.447Z,29.50
2018-08-31T20:02:30.429Z,23.17
2018-08-31T20:04:59.829Z,24.17
2018-08-31T20:07:30.774Z,20.70
2018-08-31T20:10:00.250Z,20.97
2018-08-31T20:12:29.246Z,18.40
2018-08-31T20:14:59.042Z,18.17
2018-08-31T20:17:28.594Z,19.10
2018-08-31T20:19:57.865Z,19.57
2018-08-31T20:22:27.114Z,20.90
2018-08-31T20:24:57.139Z,30.10
2018-08-31T20:27:26.528Z,23.00
2018-08-31T20:29:55.735Z,23.47
2018-08-31T20:32:26.925Z,22.73
2018-08-31T20:34:56.173Z,23.77
2018-08-31T20:37:27.571Z,23.33
2018-08-31T20:39:57.665Z,23.10
2018-08-31T20:42:28.790Z,22.67
2018-08-31T20:44:58.064Z,27.02
2018-08-31T20:47:27.446Z,27.40
2018-08-31T20:49:57.289Z,24.03
2018-08-31T20:52:26.477Z,22.20
2018-08-31T20:54:57.184Z,23.23
2018-08-31T20:57:26.286Z,27.07
2018-08-31T20:59:56.178Z,30.87
2018-08-31T21:02:25.442Z,27.30
2018-08-31T21:04:54.435Z,29.20
2018-08-31T21:07:24.140Z,25.07
2018-08-31T21:09:53.158Z,29.33
2018-08-31T21:12:22.279Z,27.27
2018-08-31T21:14:51.569Z,24.47
2018-08-31T21:17:21.925Z,23.98
2018-08-31T21:19:50.980Z,31.07
2018-08-31T21:22:20.706Z,27.52
2018-08-31T21:24:50.186Z,23.13
2018-08-31T21:27:19.265Z,28.30
2018-08-31T21:29:48.269Z,24.93
2018-08-31T21:32:17.837Z,28.70
2018-08-31T21:34:46.660Z,26.20
2018-08-31T21:37:15.445Z,30.05
2018-08-31T21:39:44.187Z,29.00
2018-08-31T21:42:13.802Z,30.37
2018-08-31T21:44:42.981Z,26.60
2018-08-31T21:47:12.014Z,26.30
2018-08-31T21:49:41.291Z,26.70
2018-08-31T21:52:10.845Z,34.00
2018-08-31T21:54:39.948Z,27.10
2018-08-31T21:57:09.043Z,26.23
2018-08-31T21:59:38.380Z,27.53
2018-08-31T22:02:07.456Z,28.70
2018-08-31T22:04:36.876Z,27.83
2018-08-31T22:07:06.055Z,26.70
2018-08-31T22:09:35.229Z,28.17
2018-08-31T22:12:04.943Z,40.30
2018-08-31T22:14:33.804Z,26.33
2018-08-31T22:17:02.749Z,29.20
2018-08-31T22:19:31.825Z,29.50
2018-08-31T22:22:01.429Z,35.70
2018-08-31T22:24:30.433Z,30.53
2018-08-31T22:26:59.885Z,31.67
2018-08-31T22:29:28.948Z,30.77
2018-08-31T22:31:57.955Z,36.63
2018-08-31T22:34:26.529Z,30.93
2018-08-31T22:36:55.394Z,29.47
2018-08-31T22:39:24.211Z,28.45
2018-08-31T22:41:53.060Z,32.20
2018-08-31T22:44:22.243Z,30.67
2018-08-31T22:46:51.673Z,27.60
2018-08-31T22:49:20.830Z,37.40
2018-08-31T22:51:49.835Z,29.57
2018-08-31T22:54:18.463Z,32.33
2018-08-31T22:56:47.534Z,30.50
2018-08-31T22:59:16.550Z,41.15
2018-08-31T23:01:45.400Z,31.93
2018-08-31T23:04:14.119Z,39.45
2018-08-31T23:06:43.316Z,40.73
2018-08-31T23:09:13.152Z,34.57
2018-08-31T23:11:42.164Z,35.60
2018-08-31T23:14:11.003Z,33.90
2018-08-31T23:16:40.630Z,39.10
2018-08-31T23:19:09.515Z,41.33
2018-08-31T23:21:38.464Z,36.10
2018-08-31T23:24:07.103Z,40.00
2018-08-31T23:26:36.475Z,42.07
2018-08-31T23:29:05.632Z,32.90
2018-08-31T23:31:34.635Z,37.33
2018-08-31T23:34:05.604Z,38.77
2018-08-31T23:36:34.241Z,40.03
2018-08-31T23:39:03.386Z,34.78
2018-08-31T23:41:32.059Z,33.42
2018-08-31T23:44:01.615Z,35.63
2018-08-31T23:46:30.535Z,29.40
2018-08-31T23:49:00.289Z,31.43
2018-08-31T23:51:29.571Z,33.98
2018-08-31T23:53:58.251Z,31.50
2018-08-31T23:56:28.410Z,37.97
2018-08-31T23:58:57.124Z,25.73
